Avondale Estates, Georgia
Current Conditions -  °F | °C
As of 11:53 PM on Thursday 27 Nov 2014 (Local Time) from KPDK Reporting Station
Clear Clear  
Wind Chill: -4°   Ceiling: Unl
Heat Index:   Visibility: 10mi
Dew Point: -6°   Wind: 10mph
Humidity: 64%   Direction: 340°NNW
Pressure: 30.38"   Gusts: NA
Location:  33.77°N, 84.27°W
Report Text: KPDK 280453Z AUTO 34009KT 10SM CLR 01/M06 A3038 RMK AO2 SLP299 T00061056 400830006
Loading
Personal Weather Stations






























Interactive Weather Map New forecast layout! Learn more

10-Day Weather Forecast

Advertisements
Track Severe Weather on mobile